sensor_id;sensor_type;location;lat;lon;timestamp;pressure;altitude;pressure_sealevel;temperature;humidity
59170;BME280;52474;52.236;5.114;2023-05-22T00:00:50;101653.38;;;13.67;100.00
59170;BME280;52474;52.236;5.114;2023-05-22T00:03:19;101660.25;;;13.70;100.00
59170;BME280;52474;52.236;5.114;2023-05-22T00:05:45;101656.75;;;13.69;100.00
59170;BME280;52474;52.236;5.114;2023-05-22T00:08:12;101653.56;;;13.75;100.00
59170;BME280;52474;52.236;5.114;2023-05-22T00:10:38;101649.22;;;13.74;100.00
59170;BME280;52474;52.236;5.114;2023-05-22T00:13:04;101636.91;;;13.73;100.00
59170;BME280;52474;52.236;5.114;2023-05-22T00:15:30;101642.63;;;13.69;100.00
59170;BME280;52474;52.236;5.114;2023-05-22T00:17:56;101644.44;;;13.68;100.00
59170;BME280;52474;52.236;5.114;2023-05-22T00:20:22;101635.91;;;13.74;100.00
59170;BME280;52474;52.236;5.114;2023-05-22T00:22:47;101626.81;;;13.77;100.00
59170;BME280;52474;52.236;5.114;2023-05-22T00:25:17;101616.03;;;13.79;100.00
59170;BME280;52474;52.236;5.114;2023-05-22T00:27:43;101623.75;;;13.82;100.00
59170;BME280;52474;52.236;5.114;2023-05-22T00:30:10;101617.19;;;13.86;100.00
59170;BME280;52474;52.236;5.114;2023-05-22T00:32:36;101591.50;;;13.75;100.00
59170;BME280;52474;52.236;5.114;2023-05-22T00:35:01;101613.16;;;13.91;100.00
59170;BME280;52474;52.236;5.114;2023-05-22T00:37:28;101620.03;;;13.94;100.00
59170;BME280;52474;52.236;5.114;2023-05-22T00:39:54;101641.59;;;13.91;100.00
59170;BME280;52474;52.236;5.114;2023-05-22T00:42:20;101622.09;;;13.90;100.00
59170;BME280;52474;52.236;5.114;2023-05-22T00:44:45;101606.00;;;13.92;100.00
59170;BME280;52474;52.236;5.114;2023-05-22T00:47:13;101622.00;;;14.02;100.00
59170;BME280;52474;52.236;5.114;2023-05-22T00:49:40;101606.28;;;13.89;100.00
59170;BME280;52474;52.236;5.114;2023-05-22T00:52:07;101620.19;;;14.02;100.00
59170;BME280;52474;52.236;5.114;2023-05-22T00:54:33;101610.94;;;13.96;100.00
59170;BME280;52474;52.236;5.114;2023-05-22T00:57:00;101606.00;;;13.92;100.00
59170;BME280;52474;52.236;5.114;2023-05-22T00:59:27;101597.16;;;13.91;100.00
59170;BME280;52474;52.236;5.114;2023-05-22T01:01:57;101607.97;;;14.00;100.00
59170;BME280;52474;52.236;5.114;2023-05-22T01:04:25;101608.38;;;13.95;100.00
59170;BME280;52474;52.236;5.114;2023-05-22T01:06:52;101536.88;;;13.50;100.00
59170;BME280;52474;52.236;5.114;2023-05-22T01:09:18;101592.81;;;13.90;100.00
59170;BME280;52474;52.236;5.114;2023-05-22T01:11:53;101575.25;;;13.78;100.00
59170;BME280;52474;52.236;5.114;2023-05-22T01:17:27;101584.38;;;13.85;100.00
59170;BME280;52474;52.236;5.114;2023-05-22T01:31:05;101547.03;;;13.56;100.00
59170;BME280;52474;52.236;5.114;2023-05-22T01:33:47;101564.97;;;13.64;100.00
59170;BME280;52474;52.236;5.114;2023-05-22T01:36:17;101555.13;;;13.55;100.00
59170;BME280;52474;52.236;5.114;2023-05-22T01:38:48;101544.16;;;13.48;100.00
59170;BME280;52474;52.236;5.114;2023-05-22T01:41:15;101539.13;;;13.45;100.00
59170;BME280;52474;52.236;5.114;2023-05-22T01:43:41;101558.19;;;13.50;100.00
59170;BME280;52474;52.236;5.114;2023-05-22T01:46:07;101553.97;;;13.47;100.00
59170;BME280;52474;52.236;5.114;2023-05-22T01:48:34;101555.91;;;13.45;100.00
59170;BME280;52474;52.236;5.114;2023-05-22T01:51:05;101545.94;;;13.38;100.00
59170;BME280;52474;52.236;5.114;2023-05-22T01:53:38;101527.63;;;13.23;100.00
59170;BME280;52474;52.236;5.114;2023-05-22T01:56:09;101515.63;;;13.08;100.00
59170;BME280;52474;52.236;5.114;2023-05-22T01:58:46;101523.94;;;13.15;100.00
59170;BME280;52474;52.236;5.114;2023-05-22T02:01:16;101535.41;;;13.15;100.00
59170;BME280;52474;52.236;5.114;2023-05-22T02:03:44;101537.53;;;13.21;100.00
59170;BME280;52474;52.236;5.114;2023-05-22T02:06:12;101505.28;;;13.05;100.00
59170;BME280;52474;52.236;5.114;2023-05-22T02:08:40;101525.63;;;13.16;100.00
59170;BME280;52474;52.236;5.114;2023-05-22T02:11:09;101505.06;;;12.97;100.00
59170;BME280;52474;52.236;5.114;2023-05-22T02:13:37;101533.16;;;13.10;100.00
59170;BME280;52474;52.236;5.114;2023-05-22T02:16:05;101521.22;;;13.05;100.00
59170;BME280;52474;52.236;5.114;2023-05-22T02:18:31;101521.34;;;13.03;100.00
59170;BME280;52474;52.236;5.114;2023-05-22T02:20:57;101518.13;;;13.00;100.00
59170;BME280;52474;52.236;5.114;2023-05-22T02:23:23;101501.72;;;12.95;100.00
59170;BME280;52474;52.236;5.114;2023-05-22T02:25:50;101507.03;;;12.95;100.00
59170;BME280;52474;52.236;5.114;2023-05-22T02:28:15;101511.88;;;12.89;100.00
59170;BME280;52474;52.236;5.114;2023-05-22T02:30:43;101485.75;;;12.74;100.00
59170;BME280;52474;52.236;5.114;2023-05-22T02:33:09;101508.06;;;12.82;100.00
59170;BME280;52474;52.236;5.114;2023-05-22T02:35:35;101497.59;;;12.70;100.00
59170;BME280;52474;52.236;5.114;2023-05-22T02:38:02;101507.72;;;12.76;100.00
59170;BME280;52474;52.236;5.114;2023-05-22T02:40:28;101504.34;;;12.74;100.00
59170;BME280;52474;52.236;5.114;2023-05-22T02:42:53;101510.97;;;12.79;100.00
59170;BME280;52474;52.236;5.114;2023-05-22T02:45:19;101510.06;;;12.69;100.00
59170;BME280;52474;52.236;5.114;2023-05-22T02:47:45;101507.31;;;12.59;100.00
59170;BME280;52474;52.236;5.114;2023-05-22T02:50:11;101493.38;;;12.46;100.00
59170;BME280;52474;52.236;5.114;2023-05-22T02:52:37;101443.00;;;12.23;100.00
59170;BME280;52474;52.236;5.114;2023-05-22T02:55:04;101503.38;;;12.54;100.00
59170;BME280;52474;52.236;5.114;2023-05-22T02:57:29;101491.19;;;12.51;100.00
59170;BME280;52474;52.236;5.114;2023-05-22T02:59:57;101495.06;;;12.47;100.00
59170;BME280;52474;52.236;5.114;2023-05-22T03:02:25;101485.44;;;12.35;100.00
59170;BME280;52474;52.236;5.114;2023-05-22T03:04:53;101486.44;;;12.34;100.00
59170;BME280;52474;52.236;5.114;2023-05-22T03:07:18;101502.75;;;12.50;100.00
59170;BME280;52474;52.236;5.114;2023-05-22T03:09:46;101506.09;;;12.63;100.00
59170;BME280;52474;52.236;5.114;2023-05-22T03:12:11;101504.09;;;12.56;100.00
59170;BME280;52474;52.236;5.114;2023-05-22T03:14:37;101500.44;;;12.57;100.00
59170;BME280;52474;52.236;5.114;2023-05-22T03:17:03;101495.97;;;12.57;100.00
59170;BME280;52474;52.236;5.114;2023-05-22T03:19:29;101492.75;;;12.54;100.00
59170;BME280;52474;52.236;5.114;2023-05-22T03:21:55;101490.16;;;12.63;100.00
59170;BME280;52474;52.236;5.114;2023-05-22T03:24:21;101488.25;;;12.54;100.00
59170;BME280;52474;52.236;5.114;2023-05-22T03:26:47;101494.75;;;12.40;100.00
59170;BME280;52474;52.236;5.114;2023-05-22T03:29:18;101462.09;;;12.17;100.00
59170;BME280;52474;52.236;5.114;2023-05-22T03:31:44;101472.13;;;12.14;100.00
59170;BME280;52474;52.236;5.114;2023-05-22T03:34:12;101490.94;;;12.22;100.00
59170;BME280;52474;52.236;5.114;2023-05-22T03:36:40;101494.56;;;12.21;100.00
59170;BME280;52474;52.236;5.114;2023-05-22T03:39:06;101479.00;;;12.16;100.00
59170;BME280;52474;52.236;5.114;2023-05-22T03:41:37;101500.72;;;12.21;100.00
59170;BME280;52474;52.236;5.114;2023-05-22T03:44:04;101494.69;;;12.19;100.00
59170;BME280;52474;52.236;5.114;2023-05-22T03:46:32;101493.97;;;12.17;100.00
59170;BME280;52474;52.236;5.114;2023-05-22T03:48:57;101501.81;;;12.19;100.00
59170;BME280;52474;52.236;5.114;2023-05-22T03:51:23;101494.78;;;12.18;100.00
59170;BME280;52474;52.236;5.114;2023-05-22T03:53:49;101484.47;;;12.03;100.00
59170;BME280;52474;52.236;5.114;2023-05-22T03:56:15;101504.31;;;12.20;100.00
59170;BME280;52474;52.236;5.114;2023-05-22T03:58:41;101492.50;;;12.13;100.00
59170;BME280;52474;52.236;5.114;2023-05-22T04:01:06;101485.72;;;12.20;100.00
59170;BME280;52474;52.236;5.114;2023-05-22T04:03:35;101478.38;;;12.24;100.00
59170;BME280;52474;52.236;5.114;2023-05-22T04:06:02;101502.44;;;12.43;100.00
59170;BME280;52474;52.236;5.114;2023-05-22T04:08:28;101510.72;;;12.50;100.00
59170;BME280;52474;52.236;5.114;2023-05-22T04:10:55;101517.13;;;12.59;100.00
59170;BME280;52474;52.236;5.114;2023-05-22T04:13:21;101527.81;;;12.68;100.00
59170;BME280;52474;52.236;5.114;2023-05-22T04:15:47;101531.91;;;12.73;100.00
59170;BME280;52474;52.236;5.114;2023-05-22T04:18:14;101523.81;;;12.74;100.00
59170;BME280;52474;52.236;5.114;2023-05-22T04:20:40;101522.69;;;12.77;100.00
59170;BME280;52474;52.236;5.114;2023-05-22T04:23:07;101511.50;;;12.73;100.00
59170;BME280;52474;52.236;5.114;2023-05-22T04:25:32;101508.38;;;12.68;100.00
59170;BME280;52474;52.236;5.114;2023-05-22T04:27:59;101523.81;;;12.74;100.00
59170;BME280;52474;52.236;5.114;2023-05-22T04:30:27;101527.63;;;12.81;100.00
59170;BME280;52474;52.236;5.114;2023-05-22T04:32:54;101544.38;;;12.93;100.00
59170;BME280;52474;52.236;5.114;2023-05-22T04:35:21;101544.09;;;12.96;100.00
59170;BME280;52474;52.236;5.114;2023-05-22T04:37:46;101549.44;;;12.96;100.00
59170;BME280;52474;52.236;5.114;2023-05-22T04:40:12;101544.56;;;13.01;100.00
59170;BME280;52474;52.236;5.114;2023-05-22T04:42:40;101548.38;;;13.08;100.00
59170;BME280;52474;52.236;5.114;2023-05-22T04:45:10;101550.53;;;13.15;100.00
59170;BME280;52474;52.236;5.114;2023-05-22T04:47:38;101556.88;;;13.23;100.00
59170;BME280;52474;52.236;5.114;2023-05-22T04:50:06;101551.53;;;13.35;100.00
59170;BME280;52474;52.236;5.114;2023-05-22T04:52:32;101528.25;;;13.27;100.00
59170;BME280;52474;52.236;5.114;2023-05-22T04:54:59;101562.66;;;13.49;100.00
59170;BME280;52474;52.236;5.114;2023-05-22T04:57:25;101555.69;;;13.58;100.00
59170;BME280;52474;52.236;5.114;2023-05-22T04:59:52;101544.91;;;13.60;100.00
59170;BME280;52474;52.236;5.114;2023-05-22T05:02:18;101547.75;;;13.68;100.00
59170;BME280;52474;52.236;5.114;2023-05-22T05:04:44;101552.16;;;13.79;100.00
59170;BME280;52474;52.236;5.114;2023-05-22T05:07:11;101549.09;;;13.93;100.00
59170;BME280;52474;52.236;5.114;2023-05-22T05:09:38;101532.47;;;14.01;100.00
59170;BME280;52474;52.236;5.114;2023-05-22T05:12:04;101534.44;;;14.08;100.00
59170;BME280;52474;52.236;5.114;2023-05-22T05:14:30;101522.09;;;14.17;100.00
59170;BME280;52474;52.236;5.114;2023-05-22T05:16:56;101548.63;;;14.38;100.00
59170;BME280;52474;52.236;5.114;2023-05-22T05:19:22;101544.16;;;14.48;100.00
59170;BME280;52474;52.236;5.114;2023-05-22T05:21:48;101543.63;;;14.54;100.00
59170;BME280;52474;52.236;5.114;2023-05-22T05:24:15;101542.78;;;14.64;100.00
59170;BME280;52474;52.236;5.114;2023-05-22T05:26:44;101543.78;;;14.72;100.00
59170;BME280;52474;52.236;5.114;2023-05-22T05:29:11;101541.81;;;14.74;100.00
59170;BME280;52474;52.236;5.114;2023-05-22T05:31:47;101541.09;;;14.82;100.00
59170;BME280;52474;52.236;5.114;2023-05-22T05:34:30;101529.72;;;14.80;100.00
59170;BME280;52474;52.236;5.114;2023-05-22T05:37:01;101545.56;;;15.01;100.00
59170;BME280;52474;52.236;5.114;2023-05-22T05:39:27;101546.13;;;15.05;100.00
59170;BME280;52474;52.236;5.114;2023-05-22T05:41:54;101548.47;;;15.17;100.00
59170;BME280;52474;52.236;5.114;2023-05-22T05:44:20;101537.34;;;15.32;100.00
59170;BME280;52474;52.236;5.114;2023-05-22T05:46:46;101519.22;;;15.35;100.00
59170;BME280;52474;52.236;5.114;2023-05-22T05:49:15;101540.16;;;15.67;100.00
59170;BME280;52474;52.236;5.114;2023-05-22T05:51:42;101544.47;;;15.88;100.00
59170;BME280;52474;52.236;5.114;2023-05-22T05:54:09;101527.53;;;15.97;100.00
59170;BME280;52474;52.236;5.114;2023-05-22T05:56:35;101548.25;;;16.13;100.00
59170;BME280;52474;52.236;5.114;2023-05-22T05:59:02;101537.66;;;16.21;100.00
59170;BME280;52474;52.236;5.114;2023-05-22T06:01:51;101512.84;;;16.29;100.00
59170;BME280;52474;52.236;5.114;2023-05-22T06:04:22;101529.41;;;16.50;100.00
59170;BME280;52474;52.236;5.114;2023-05-22T06:06:50;101503.22;;;16.54;100.00
59170;BME280;52474;52.236;5.114;2023-05-22T06:09:16;101510.84;;;16.67;100.00
59170;BME280;52474;52.236;5.114;2023-05-22T06:12:02;101531.06;;;17.05;100.00
59170;BME280;52474;52.236;5.114;2023-05-22T06:14:28;101530.25;;;17.31;100.00
59170;BME280;52474;52.236;5.114;2023-05-22T06:16:55;101515.56;;;19.18;100.00
59170;BME280;52474;52.236;5.114;2023-05-22T06:19:21;101517.66;;;21.70;100.00
59170;BME280;52474;52.236;5.114;2023-05-22T06:21:46;101522.88;;;22.93;100.00
59170;BME280;52474;52.236;5.114;2023-05-22T06:24:12;101533.28;;;23.88;100.00
59170;BME280;52474;52.236;5.114;2023-05-22T06:26:38;101515.72;;;24.45;100.00
59170;BME280;52474;52.236;5.114;2023-05-22T06:29:05;101538.25;;;24.99;100.00
59170;BME280;52474;52.236;5.114;2023-05-22T06:31:33;101532.19;;;25.95;100.00
59170;BME280;52474;52.236;5.114;2023-05-22T06:34:00;101530.34;;;25.82;100.00
59170;BME280;52474;52.236;5.114;2023-05-22T06:36:26;101530.00;;;26.81;100.00
59170;BME280;52474;52.236;5.114;2023-05-22T06:38:53;101535.69;;;27.59;100.00
59170;BME280;52474;52.236;5.114;2023-05-22T06:41:42;101534.00;;;27.77;100.00
59170;BME280;52474;52.236;5.114;2023-05-22T06:44:11;101536.81;;;28.49;100.00
59170;BME280;52474;52.236;5.114;2023-05-22T06:46:38;101536.63;;;28.74;100.00
59170;BME280;52474;52.236;5.114;2023-05-22T06:49:07;101542.44;;;29.01;100.00
59170;BME280;52474;52.236;5.114;2023-05-22T06:51:46;101538.91;;;28.77;100.00
59170;BME280;52474;52.236;5.114;2023-05-22T06:54:14;101551.59;;;29.19;100.00
59170;BME280;52474;52.236;5.114;2023-05-22T06:56:44;101548.25;;;29.40;100.00
59170;BME280;52474;52.236;5.114;2023-05-22T06:59:14;101536.66;;;29.85;100.00
59170;BME280;52474;52.236;5.114;2023-05-22T07:02:00;101553.78;;;29.81;100.00
59170;BME280;52474;52.236;5.114;2023-05-22T07:04:34;101517.81;;;29.20;100.00
59170;BME280;52474;52.236;5.114;2023-05-22T07:07:05;101553.53;;;30.39;100.00
59170;BME280;52474;52.236;5.114;2023-05-22T07:09:31;101545.47;;;31.51;100.00
59170;BME280;52474;52.236;5.114;2023-05-22T07:12:04;101551.81;;;31.79;100.00
59170;BME280;52474;52.236;5.114;2023-05-22T07:14:32;101556.41;;;31.51;100.00
59170;BME280;52474;52.236;5.114;2023-05-22T07:16:58;101559.63;;;31.92;100.00
59170;BME280;52474;52.236;5.114;2023-05-22T07:19:33;101557.72;;;32.15;100.00
59170;BME280;52474;52.236;5.114;2023-05-22T07:22:02;101552.06;;;32.26;100.00
59170;BME280;52474;52.236;5.114;2023-05-22T07:24:30;101553.63;;;32.44;100.00
59170;BME280;52474;52.236;5.114;2023-05-22T07:26:56;101565.97;;;31.71;100.00
59170;BME280;52474;52.236;5.114;2023-05-22T07:29:21;101561.47;;;32.36;100.00
59170;BME280;52474;52.236;5.114;2023-05-22T07:31:49;101564.38;;;32.83;100.00
59170;BME280;52474;52.236;5.114;2023-05-22T07:34:15;101566.41;;;32.61;100.00
59170;BME280;52474;52.236;5.114;2023-05-22T07:36:43;101568.41;;;32.70;100.00
59170;BME280;52474;52.236;5.114;2023-05-22T07:39:08;101559.00;;;32.07;100.00
59170;BME280;52474;52.236;5.114;2023-05-22T07:41:38;101573.06;;;32.16;100.00
59170;BME280;52474;52.236;5.114;2023-05-22T07:44:05;101566.34;;;32.01;100.00
59170;BME280;52474;52.236;5.114;2023-05-22T07:46:34;101562.41;;;33.59;100.00
59170;BME280;52474;52.236;5.114;2023-05-22T07:49:09;101562.88;;;34.24;100.00
59170;BME280;52474;52.236;5.114;2023-05-22T07:51:38;101547.50;;;33.49;100.00
59170;BME280;52474;52.236;5.114;2023-05-22T07:54:06;101548.59;;;33.48;100.00
59170;BME280;52474;52.236;5.114;2023-05-22T07:56:34;101554.38;;;33.52;100.00
59170;BME280;52474;52.236;5.114;2023-05-22T07:59:04;101559.59;;;33.01;100.00
59170;BME280;52474;52.236;5.114;2023-05-22T08:01:30;101563.75;;;34.29;100.00
59170;BME280;52474;52.236;5.114;2023-05-22T08:03:55;101562.34;;;33.48;100.00
59170;BME280;52474;52.236;5.114;2023-05-22T08:06:21;101565.28;;;33.31;100.00
59170;BME280;52474;52.236;5.114;2023-05-22T08:08:49;101564.97;;;33.86;100.00
59170;BME280;52474;52.236;5.114;2023-05-22T08:11:14;101567.19;;;33.89;100.00
59170;BME280;52474;52.236;5.114;2023-05-22T08:13:40;101565.31;;;33.99;100.00
59170;BME280;52474;52.236;5.114;2023-05-22T08:16:06;101569.22;;;35.26;100.00
59170;BME280;52474;52.236;5.114;2023-05-22T08:18:33;101569.25;;;34.45;100.00
59170;BME280;52474;52.236;5.114;2023-05-22T08:20:58;101562.41;;;34.62;100.00
59170;BME280;52474;52.236;5.114;2023-05-22T08:23:25;101569.81;;;34.88;100.00
59170;BME280;52474;52.236;5.114;2023-05-22T08:25:51;101571.31;;;35.65;100.00
59170;BME280;52474;52.236;5.114;2023-05-22T08:28:16;101571.56;;;35.64;100.00
59170;BME280;52474;52.236;5.114;2023-05-22T08:30:42;101570.56;;;35.34;100.00
59170;BME280;52474;52.236;5.114;2023-05-22T08:33:08;101573.81;;;35.57;100.00
59170;BME280;52474;52.236;5.114;2023-05-22T08:35:34;101556.31;;;35.87;100.00
59170;BME280;52474;52.236;5.114;2023-05-22T08:38:00;101568.13;;;35.93;100.00
59170;BME280;52474;52.236;5.114;2023-05-22T08:40:33;101551.50;;;36.08;100.00
59170;BME280;52474;52.236;5.114;2023-05-22T08:43:00;101559.66;;;37.21;100.00
59170;BME280;52474;52.236;5.114;2023-05-22T08:45:26;101556.50;;;37.09;100.00
59170;BME280;52474;52.236;5.114;2023-05-22T08:47:56;101553.72;;;36.80;100.00
59170;BME280;52474;52.236;5.114;2023-05-22T08:50:23;101548.72;;;36.58;100.00
59170;BME280;52474;52.236;5.114;2023-05-22T08:52:54;101535.25;;;36.11;100.00
59170;BME280;52474;52.236;5.114;2023-05-22T08:55:21;101551.00;;;37.04;100.00
59170;BME280;52474;52.236;5.114;2023-05-22T08:57:48;101543.09;;;35.89;100.00
59170;BME280;52474;52.236;5.114;2023-05-22T09:00:16;101549.59;;;36.43;100.00
59170;BME280;52474;52.236;5.114;2023-05-22T09:02:42;101539.09;;;36.05;100.00
59170;BME280;52474;52.236;5.114;2023-05-22T09:05:08;101541.25;;;36.87;100.00
59170;BME280;52474;52.236;5.114;2023-05-22T09:07:35;101538.25;;;36.49;100.00
59170;BME280;52474;52.236;5.114;2023-05-22T09:10:02;101541.09;;;36.39;100.00
59170;BME280;52474;52.236;5.114;2023-05-22T09:12:30;101535.78;;;36.14;100.00
59170;BME280;52474;52.236;5.114;2023-05-22T09:15:08;101534.88;;;37.40;100.00
59170;BME280;52474;52.236;5.114;2023-05-22T09:17:41;101521.03;;;33.96;100.00
59170;BME280;52474;52.236;5.114;2023-05-22T09:20:07;101530.69;;;32.93;100.00
59170;BME280;52474;52.236;5.114;2023-05-22T09:22:36;101528.91;;;36.45;100.00
59170;BME280;52474;52.236;5.114;2023-05-22T09:25:05;101518.31;;;36.63;100.00
59170;BME280;52474;52.236;5.114;2023-05-22T09:27:32;101512.91;;;31.55;100.00
59170;BME280;52474;52.236;5.114;2023-05-22T09:29:58;101524.03;;;29.96;100.00
59170;BME280;52474;52.236;5.114;2023-05-22T09:32:28;101526.66;;;30.20;100.00
59170;BME280;52474;52.236;5.114;2023-05-22T09:35:01;101518.84;;;29.30;100.00
59170;BME280;52474;52.236;5.114;2023-05-22T09:37:27;101513.75;;;29.86;100.00
59170;BME280;52474;52.236;5.114;2023-05-22T09:39:53;101520.47;;;32.83;100.00
59170;BME280;52474;52.236;5.114;2023-05-22T09:42:23;101509.25;;;33.32;100.00
59170;BME280;52474;52.236;5.114;2023-05-22T09:44:50;101520.16;;;33.12;100.00
59170;BME280;52474;52.236;5.114;2023-05-22T09:47:16;101519.81;;;31.84;100.00
59170;BME280;52474;52.236;5.114;2023-05-22T09:49:43;101526.75;;;31.92;100.00
59170;BME280;52474;52.236;5.114;2023-05-22T09:52:09;101515.97;;;35.46;100.00
59170;BME280;52474;52.236;5.114;2023-05-22T09:54:50;101519.28;;;36.72;100.00
59170;BME280;52474;52.236;5.114;2023-05-22T09:57:20;101530.78;;;31.84;100.00
59170;BME280;52474;52.236;5.114;2023-05-22T09:59:52;101532.19;;;30.70;100.00
59170;BME280;52474;52.236;5.114;2023-05-22T10:02:23;101524.56;;;30.10;100.00
59170;BME280;52474;52.236;5.114;2023-05-22T10:04:50;101524.41;;;30.45;100.00
59170;BME280;52474;52.236;5.114;2023-05-22T10:07:24;101525.22;;;34.55;100.00
59170;BME280;52474;52.236;5.114;2023-05-22T10:10:10;101525.97;;;32.83;100.00
59170;BME280;52474;52.236;5.114;2023-05-22T10:12:43;101523.19;;;31.92;100.00
59170;BME280;52474;52.236;5.114;2023-05-22T10:15:11;101529.31;;;29.86;100.00
59170;BME280;52474;52.236;5.114;2023-05-22T10:17:38;101513.16;;;29.44;100.00
59170;BME280;52474;52.236;5.114;2023-05-22T10:20:07;101509.59;;;30.12;100.00
59170;BME280;52474;52.236;5.114;2023-05-22T10:22:35;101522.94;;;33.85;100.00
59170;BME280;52474;52.236;5.114;2023-05-22T10:25:02;101529.59;;;35.07;100.00
59170;BME280;52474;52.236;5.114;2023-05-22T10:27:28;101526.69;;;36.08;100.00
59170;BME280;52474;52.236;5.114;2023-05-22T10:29:59;101538.38;;;35.89;100.00
59170;BME280;52474;52.236;5.114;2023-05-22T10:32:40;101512.91;;;35.63;100.00
59170;BME280;52474;52.236;5.114;2023-05-22T10:35:20;101489.50;;;34.80;100.00
59170;BME280;52474;52.236;5.114;2023-05-22T10:37:51;101521.09;;;36.52;100.00
59170;BME280;52474;52.236;5.114;2023-05-22T10:40:22;101511.94;;;36.28;100.00
59170;BME280;52474;52.236;5.114;2023-05-22T10:43:00;101514.63;;;36.96;100.00
59170;BME280;52474;52.236;5.114;2023-05-22T10:45:27;101505.31;;;36.92;100.00
59170;BME280;52474;52.236;5.114;2023-05-22T10:48:07;101500.78;;;34.53;100.00
59170;BME280;52474;52.236;5.114;2023-05-22T10:50:34;101505.00;;;31.80;100.00
59170;BME280;52474;52.236;5.114;2023-05-22T10:53:27;101512.69;;;31.17;100.00
59170;BME280;52474;52.236;5.114;2023-05-22T10:55:57;101507.88;;;34.90;100.00
59170;BME280;52474;52.236;5.114;2023-05-22T10:58:30;101504.25;;;36.25;100.00
59170;BME280;52474;52.236;5.114;2023-05-22T11:03:57;101507.75;;;35.96;100.00
59170;BME280;52474;52.236;5.114;2023-05-22T11:06:43;101500.94;;;36.57;100.00
59170;BME280;52474;52.236;5.114;2023-05-22T11:09:26;101495.31;;;36.67;100.00
59170;BME280;52474;52.236;5.114;2023-05-22T11:12:13;101499.91;;;36.19;100.00
59170;BME280;52474;52.236;5.114;2023-05-22T11:15:08;101499.56;;;35.81;100.00
59170;BME280;52474;52.236;5.114;2023-05-22T11:17:40;101489.50;;;36.00;100.00
59170;BME280;52474;52.236;5.114;2023-05-22T11:22:48;101491.03;;;36.22;100.00
59170;BME280;52474;52.236;5.114;2023-05-22T11:25:18;101479.34;;;36.35;100.00
59170;BME280;52474;52.236;5.114;2023-05-22T11:27:48;101493.25;;;36.83;100.00
59170;BME280;52474;52.236;5.114;2023-05-22T11:30:14;101479.47;;;36.20;100.00
59170;BME280;52474;52.236;5.114;2023-05-22T11:32:42;101489.47;;;36.74;100.00
59170;BME280;52474;52.236;5.114;2023-05-22T11:35:13;101479.16;;;37.09;100.00
59170;BME280;52474;52.236;5.114;2023-05-22T11:37:40;101472.78;;;36.31;100.00
59170;BME280;52474;52.236;5.114;2023-05-22T11:40:13;101485.25;;;36.52;100.00
59170;BME280;52474;52.236;5.114;2023-05-22T11:42:39;101492.41;;;36.59;99.50
59170;BME280;52474;52.236;5.114;2023-05-22T11:45:06;101486.16;;;36.14;100.00
59170;BME280;52474;52.236;5.114;2023-05-22T11:47:32;101468.22;;;36.74;100.00
59170;BME280;52474;52.236;5.114;2023-05-22T11:49:58;101483.16;;;36.05;100.00
59170;BME280;52474;52.236;5.114;2023-05-22T11:52:32;101483.38;;;34.99;100.00
59170;BME280;52474;52.236;5.114;2023-05-22T11:54:58;101492.63;;;35.34;100.00
59170;BME280;52474;52.236;5.114;2023-05-22T11:57:24;101491.84;;;35.23;100.00
59170;BME280;52474;52.236;5.114;2023-05-22T11:59:50;101491.81;;;35.33;100.00
59170;BME280;52474;52.236;5.114;2023-05-22T12:02:17;101492.19;;;34.96;100.00
59170;BME280;52474;52.236;5.114;2023-05-22T12:04:44;101482.59;;;34.68;100.00
59170;BME280;52474;52.236;5.114;2023-05-22T12:07:10;101508.72;;;34.96;100.00
59170;BME280;52474;52.236;5.114;2023-05-22T12:09:40;101507.91;;;34.54;100.00
59170;BME280;52474;52.236;5.114;2023-05-22T12:12:08;101504.63;;;34.68;100.00
59170;BME280;52474;52.236;5.114;2023-05-22T12:14:34;101502.16;;;34.61;100.00
59170;BME280;52474;52.236;5.114;2023-05-22T12:17:01;101510.91;;;34.58;100.00
59170;BME280;52474;52.236;5.114;2023-05-22T12:19:29;101505.16;;;34.49;100.00
59170;BME280;52474;52.236;5.114;2023-05-22T12:21:55;101502.41;;;34.24;100.00
59170;BME280;52474;52.236;5.114;2023-05-22T12:24:21;101510.41;;;34.56;100.00
59170;BME280;52474;52.236;5.114;2023-05-22T12:26:51;101503.97;;;33.73;100.00
59170;BME280;52474;52.236;5.114;2023-05-22T12:29:18;101515.34;;;33.45;100.00
59170;BME280;52474;52.236;5.114;2023-05-22T12:31:44;101509.47;;;33.16;100.00
59170;BME280;52474;52.236;5.114;2023-05-22T12:34:10;101509.16;;;33.07;100.00
59170;BME280;52474;52.236;5.114;2023-05-22T12:36:38;101493.78;;;32.36;100.00
59170;BME280;52474;52.236;5.114;2023-05-22T12:39:08;101517.34;;;32.64;100.00
59170;BME280;52474;52.236;5.114;2023-05-22T12:41:35;101505.84;;;32.35;100.00
59170;BME280;52474;52.236;5.114;2023-05-22T12:44:01;101510.69;;;31.74;100.00
59170;BME280;52474;52.236;5.114;2023-05-22T12:46:32;101524.72;;;30.49;100.00
59170;BME280;52474;52.236;5.114;2023-05-22T12:48:59;101507.31;;;31.06;100.00
59170;BME280;52474;52.236;5.114;2023-05-22T12:51:26;101518.81;;;31.24;100.00
59170;BME280;52474;52.236;5.114;2023-05-22T12:54:00;101509.63;;;30.29;100.00
59170;BME280;52474;52.236;5.114;2023-05-22T12:56:28;101518.44;;;30.82;100.00
59170;BME280;52474;52.236;5.114;2023-05-22T12:58:54;101502.44;;;29.54;100.00
59170;BME280;52474;52.236;5.114;2023-05-22T13:01:20;101522.69;;;29.82;100.00
59170;BME280;52474;52.236;5.114;2023-05-22T13:03:47;101524.53;;;28.70;100.00
59170;BME280;52474;52.236;5.114;2023-05-22T13:06:13;101527.81;;;26.64;100.00